sensor_id;sensor_type;location;lat;lon;timestamp;pressure;altitude;pressure_sealevel;temperature;humidity
6020;BME280;3038;51.122;6.840;2023-02-18T00:01:00;102012.56;;;11.52;83.03
6020;BME280;3038;51.122;6.840;2023-02-18T00:03:27;102010.59;;;11.54;82.62
6020;BME280;3038;51.122;6.840;2023-02-18T00:05:53;102005.28;;;11.54;82.77
6020;BME280;3038;51.122;6.840;2023-02-18T00:08:19;102009.63;;;11.55;82.89
6020;BME280;3038;51.122;6.840;2023-02-18T00:10:45;102015.91;;;11.54;82.78
6020;BME280;3038;51.122;6.840;2023-02-18T00:13:11;102012.56;;;11.52;82.97
6020;BME280;3038;51.122;6.840;2023-02-18T00:15:37;102012.69;;;11.50;82.92
6020;BME280;3038;51.122;6.840;2023-02-18T00:18:03;102000.25;;;11.51;82.93
6020;BME280;3038;51.122;6.840;2023-02-18T00:20:29;102005.56;;;11.51;82.86
6020;BME280;3038;51.122;6.840;2023-02-18T00:22:54;102001.09;;;11.51;82.79
6020;BME280;3038;51.122;6.840;2023-02-18T00:25:19;101992.13;;;11.52;83.37
6020;BME280;3038;51.122;6.840;2023-02-18T00:27:45;101996.72;;;11.50;82.93
6020;BME280;3038;51.122;6.840;2023-02-18T00:30:10;101987.91;;;11.50;83.20
6020;BME280;3038;51.122;6.840;2023-02-18T00:32:36;101984.53;;;11.48;83.09
6020;BME280;3038;51.122;6.840;2023-02-18T00:35:01;101976.56;;;11.48;83.34
6020;BME280;3038;51.122;6.840;2023-02-18T00:37:27;101971.94;;;11.50;83.62
6020;BME280;3038;51.122;6.840;2023-02-18T00:39:52;101973.91;;;11.48;83.52
6020;BME280;3038;51.122;6.840;2023-02-18T00:42:18;101970.53;;;11.46;83.54
6020;BME280;3038;51.122;6.840;2023-02-18T00:44:43;101968.84;;;11.45;83.83
6020;BME280;3038;51.122;6.840;2023-02-18T00:47:08;101972.22;;;11.47;83.72
6020;BME280;3038;51.122;6.840;2023-02-18T00:49:34;101962.84;;;11.43;83.72
6020;BME280;3038;51.122;6.840;2023-02-18T00:51:59;101970.81;;;11.43;83.70
6020;BME280;3038;51.122;6.840;2023-02-18T00:54:24;101966.59;;;11.40;83.67
6020;BME280;3038;51.122;6.840;2023-02-18T00:56:50;101976.53;;;11.38;83.83
6020;BME280;3038;51.122;6.840;2023-02-18T00:59:15;101958.63;;;11.40;83.94
6020;BME280;3038;51.122;6.840;2023-02-18T01:01:40;101962.41;;;11.38;83.91
6020;BME280;3038;51.122;6.840;2023-02-18T01:04:06;101962.41;;;11.38;83.94
6020;BME280;3038;51.122;6.840;2023-02-18T01:06:31;101948.13;;;11.39;84.02
6020;BME280;3038;51.122;6.840;2023-02-18T01:08:57;101955.13;;;11.40;83.97
6020;BME280;3038;51.122;6.840;2023-02-18T01:11:22;101947.88;;;11.42;83.84
6020;BME280;3038;51.122;6.840;2023-02-18T01:13:48;101945.22;;;11.42;83.90
6020;BME280;3038;51.122;6.840;2023-02-18T01:16:13;101942.81;;;11.39;83.56
6020;BME280;3038;51.122;6.840;2023-02-18T01:18:39;101941.81;;;11.40;83.58
6020;BME280;3038;51.122;6.840;2023-02-18T01:21:06;101940.84;;;11.41;83.54
6020;BME280;3038;51.122;6.840;2023-02-18T01:23:33;101940.84;;;11.41;83.45
6020;BME280;3038;51.122;6.840;2023-02-18T01:25:58;101938.19;;;11.41;83.33
6020;BME280;3038;51.122;6.840;2023-02-18T01:28:24;101940.84;;;11.41;83.56
6020;BME280;3038;51.122;6.840;2023-02-18T01:30:51;101937.34;;;11.40;83.30
6020;BME280;3038;51.122;6.840;2023-02-18T01:33:17;101935.81;;;11.38;83.38
6020;BME280;3038;51.122;6.840;2023-02-18T01:35:43;101929.78;;;11.36;83.34
6020;BME280;3038;51.122;6.840;2023-02-18T01:38:08;101933.25;;;11.36;83.54
6020;BME280;3038;51.122;6.840;2023-02-18T01:40:34;101927.84;;;11.38;83.49
6020;BME280;3038;51.122;6.840;2023-02-18T01:43:00;101938.47;;;11.38;83.50
6020;BME280;3038;51.122;6.840;2023-02-18T01:50:32;101923.50;;;11.37;83.41
6020;BME280;3038;51.122;6.840;2023-02-18T01:53:00;101907.66;;;11.35;83.25
6020;BME280;3038;51.122;6.840;2023-02-18T01:55:26;101907.81;;;11.33;83.51
6020;BME280;3038;51.122;6.840;2023-02-18T01:57:52;101903.72;;;11.29;83.72
6020;BME280;3038;51.122;6.840;2023-02-18T02:00:18;101913.66;;;11.27;83.96
6020;BME280;3038;51.122;6.840;2023-02-18T02:02:50;101904.13;;;11.25;84.13
6020;BME280;3038;51.122;6.840;2023-02-18T02:05:17;101899.50;;;11.17;84.74
6020;BME280;3038;51.122;6.840;2023-02-18T02:07:43;101894.44;;;11.14;85.04
6020;BME280;3038;51.122;6.840;2023-02-18T02:10:10;101890.63;;;11.07;85.27
6020;BME280;3038;51.122;6.840;2023-02-18T02:12:46;101894.81;;;11.00;86.36
6020;BME280;3038;51.122;6.840;2023-02-18T02:30:04;101886.22;;;10.56;90.08
6020;BME280;3038;51.122;6.840;2023-02-18T02:32:45;101881.88;;;10.55;90.60
6020;BME280;3038;51.122;6.840;2023-02-18T02:35:40;101875.84;;;10.53;90.45
6020;BME280;3038;51.122;6.840;2023-02-18T02:38:18;101873.91;;;10.55;90.74
6020;BME280;3038;51.122;6.840;2023-02-18T02:46:35;101854.09;;;10.59;90.53
6020;BME280;3038;51.122;6.840;2023-02-18T02:51:46;101855.50;;;10.63;90.46
6020;BME280;3038;51.122;6.840;2023-02-18T02:54:20;101848.94;;;10.67;90.38
6020;BME280;3038;51.122;6.840;2023-02-18T02:56:46;101852.75;;;10.74;89.73
6020;BME280;3038;51.122;6.840;2023-02-18T02:59:16;101850.81;;;10.76;89.57
6020;BME280;3038;51.122;6.840;2023-02-18T03:07:13;101846.69;;;10.93;88.94
6020;BME280;3038;51.122;6.840;2023-02-18T03:12:17;101840.56;;;11.02;88.17
6020;BME280;3038;51.122;6.840;2023-02-18T03:17:29;101836.53;;;11.08;87.86
6020;BME280;3038;51.122;6.840;2023-02-18T03:20:02;101821.28;;;11.10;87.70
6020;BME280;3038;51.122;6.840;2023-02-18T03:22:33;101820.19;;;11.13;87.53
6020;BME280;3038;51.122;6.840;2023-02-18T03:25:02;101815.69;;;11.13;87.51
6020;BME280;3038;51.122;6.840;2023-02-18T03:27:48;101815.69;;;11.13;87.40
6020;BME280;3038;51.122;6.840;2023-02-18T03:30:20;101815.69;;;11.13;87.28
6020;BME280;3038;51.122;6.840;2023-02-18T03:32:48;101817.50;;;11.13;87.38
6020;BME280;3038;51.122;6.840;2023-02-18T03:35:16;101819.19;;;11.14;87.38
6020;BME280;3038;51.122;6.840;2023-02-18T03:37:48;101812.31;;;11.11;87.16
6020;BME280;3038;51.122;6.840;2023-02-18T03:40:17;101814.94;;;11.01;88.11
6020;BME280;3038;51.122;6.840;2023-02-18T03:42:42;101818.69;;;10.89;88.62
6020;BME280;3038;51.122;6.840;2023-02-18T03:45:08;101813.34;;;10.79;89.74
6020;BME280;3038;51.122;6.840;2023-02-18T03:47:33;101816.97;;;10.69;90.82
6020;BME280;3038;51.122;6.840;2023-02-18T03:49:59;101812.28;;;10.61;91.21
6020;BME280;3038;51.122;6.840;2023-02-18T03:52:24;101802.22;;;10.55;91.40
6020;BME280;3038;51.122;6.840;2023-02-18T03:54:49;101802.47;;;10.52;92.13
6020;BME280;3038;51.122;6.840;2023-02-18T03:57:15;101800.06;;;10.49;92.32
6020;BME280;3038;51.122;6.840;2023-02-18T03:59:40;101792.38;;;10.46;92.72
6020;BME280;3038;51.122;6.840;2023-02-18T04:02:05;101791.66;;;10.44;93.10
6020;BME280;3038;51.122;6.840;2023-02-18T04:04:31;101785.66;;;10.42;93.26
6020;BME280;3038;51.122;6.840;2023-02-18T04:06:56;101780.50;;;10.40;93.49
6020;BME280;3038;51.122;6.840;2023-02-18T04:09:22;101776.03;;;10.41;93.12
6020;BME280;3038;51.122;6.840;2023-02-18T04:11:47;101767.31;;;10.39;93.24
6020;BME280;3038;51.122;6.840;2023-02-18T04:14:13;101769.03;;;10.40;93.32
6020;BME280;3038;51.122;6.840;2023-02-18T04:16:39;101770.97;;;10.38;93.34
6020;BME280;3038;51.122;6.840;2023-02-18T04:19:04;101756.72;;;10.39;93.63
6020;BME280;3038;51.122;6.840;2023-02-18T04:21:30;101769.28;;;10.37;93.43
6020;BME280;3038;51.122;6.840;2023-02-18T04:23:55;101762.31;;;10.36;93.63
6020;BME280;3038;51.122;6.840;2023-02-18T04:26:21;101765.91;;;10.35;93.73
6020;BME280;3038;51.122;6.840;2023-02-18T04:28:47;101753.75;;;10.32;94.10
6020;BME280;3038;51.122;6.840;2023-02-18T04:31:12;101752.09;;;10.31;93.80
6020;BME280;3038;51.122;6.840;2023-02-18T04:33:38;101761.03;;;10.30;93.86
6020;BME280;3038;51.122;6.840;2023-02-18T04:36:03;101759.22;;;10.31;94.46
6020;BME280;3038;51.122;6.840;2023-02-18T04:38:29;101757.50;;;10.29;94.45
6020;BME280;3038;51.122;6.840;2023-02-18T04:40:54;101757.50;;;10.29;94.23
6020;BME280;3038;51.122;6.840;2023-02-18T04:43:19;101753.16;;;10.28;94.37
6020;BME280;3038;51.122;6.840;2023-02-18T04:45:45;101748.69;;;10.29;94.79
6020;BME280;3038;51.122;6.840;2023-02-18T04:48:10;101742.56;;;10.28;94.42
6020;BME280;3038;51.122;6.840;2023-02-18T04:50:35;101739.91;;;10.28;94.29
6020;BME280;3038;51.122;6.840;2023-02-18T04:53:01;101741.72;;;10.28;94.47
6020;BME280;3038;51.122;6.840;2023-02-18T04:55:26;101738.38;;;10.26;95.03
6020;BME280;3038;51.122;6.840;2023-02-18T04:57:51;101734.00;;;10.25;95.06
6020;BME280;3038;51.122;6.840;2023-02-18T05:00:18;101730.41;;;10.26;95.06
6020;BME280;3038;51.122;6.840;2023-02-18T05:02:45;101723.41;;;10.25;94.68
6020;BME280;3038;51.122;6.840;2023-02-18T05:05:11;101725.22;;;10.24;94.92
6020;BME280;3038;51.122;6.840;2023-02-18T05:07:36;101729.78;;;10.22;94.70
6020;BME280;3038;51.122;6.840;2023-02-18T05:10:02;101723.50;;;10.23;94.39
6020;BME280;3038;51.122;6.840;2023-02-18T05:12:28;101724.47;;;10.22;95.00
6020;BME280;3038;51.122;6.840;2023-02-18T05:14:53;101728.13;;;10.21;94.84
6020;BME280;3038;51.122;6.840;2023-02-18T05:17:19;101720.16;;;10.21;94.83
6020;BME280;3038;51.122;6.840;2023-02-18T05:19:44;101727.13;;;10.22;94.53
6020;BME280;3038;51.122;6.840;2023-02-18T05:22:10;101726.44;;;10.20;95.19
6020;BME280;3038;51.122;6.840;2023-02-18T05:24:35;101725.56;;;10.20;94.46
6020;BME280;3038;51.122;6.840;2023-02-18T05:27:00;101717.75;;;10.18;94.81
6020;BME280;3038;51.122;6.840;2023-02-18T05:29:26;101724.88;;;10.18;95.23
6020;BME280;3038;51.122;6.840;2023-02-18T05:31:51;101716.09;;;10.17;95.01
6020;BME280;3038;51.122;6.840;2023-02-18T05:34:17;101698.47;;;10.16;95.54
6020;BME280;3038;51.122;6.840;2023-02-18T05:36:42;101701.97;;;10.17;95.59
6020;BME280;3038;51.122;6.840;2023-02-18T05:39:07;101700.41;;;10.14;95.68
6020;BME280;3038;51.122;6.840;2023-02-18T05:41:33;101702.38;;;10.12;95.26
6020;BME280;3038;51.122;6.840;2023-02-18T05:43:58;101690.09;;;10.11;95.39
6020;BME280;3038;51.122;6.840;2023-02-18T05:46:42;101680.31;;;10.12;95.33
6020;BME280;3038;51.122;6.840;2023-02-18T05:49:08;101679.47;;;10.11;95.41
6020;BME280;3038;51.122;6.840;2023-02-18T05:51:33;101658.25;;;10.11;94.95
6020;BME280;3038;51.122;6.840;2023-02-18T05:53:59;101676.81;;;10.11;96.09
6020;BME280;3038;51.122;6.840;2023-02-18T05:56:24;101659.09;;;10.12;95.31
6020;BME280;3038;51.122;6.840;2023-02-18T05:58:49;101678.50;;;10.12;95.72
6020;BME280;3038;51.122;6.840;2023-02-18T06:01:15;101657.25;;;10.12;95.51
6020;BME280;3038;51.122;6.840;2023-02-18T06:03:40;101671.38;;;10.13;94.94
6020;BME280;3038;51.122;6.840;2023-02-18T06:06:06;101643.00;;;10.13;95.09
6020;BME280;3038;51.122;6.840;2023-02-18T06:08:31;101650.13;;;10.13;95.06
6020;BME280;3038;51.122;6.840;2023-02-18T06:10:57;101658.94;;;10.13;94.83
6020;BME280;3038;51.122;6.840;2023-02-18T06:13:22;101666.22;;;10.11;94.82
6020;BME280;3038;51.122;6.840;2023-02-18T06:15:51;101658.25;;;10.11;94.90
6020;BME280;3038;51.122;6.840;2023-02-18T06:18:17;101655.59;;;10.11;94.31
6020;BME280;3038;51.122;6.840;2023-02-18T06:20:42;101650.97;;;10.13;94.39
6020;BME280;3038;51.122;6.840;2023-02-18T06:23:07;101647.34;;;10.14;93.60
6020;BME280;3038;51.122;6.840;2023-02-18T06:25:33;101643.72;;;10.15;93.74
6020;BME280;3038;51.122;6.840;2023-02-18T06:27:58;101650.44;;;10.19;93.32
6020;BME280;3038;51.122;6.840;2023-02-18T06:30:24;101654.72;;;10.32;92.69
6020;BME280;3038;51.122;6.840;2023-02-18T06:32:49;101654.72;;;10.41;92.05
6020;BME280;3038;51.122;6.840;2023-02-18T06:35:14;101651.69;;;10.46;91.58
6020;BME280;3038;51.122;6.840;2023-02-18T06:37:40;101654.03;;;10.49;90.65
6020;BME280;3038;51.122;6.840;2023-02-18T06:40:06;101650.03;;;10.54;90.36
6020;BME280;3038;51.122;6.840;2023-02-18T06:42:31;101654.19;;;10.57;89.99
6020;BME280;3038;51.122;6.840;2023-02-18T06:44:56;101647.66;;;10.61;89.25
6020;BME280;3038;51.122;6.840;2023-02-18T06:47:22;101650.72;;;10.66;89.24
6020;BME280;3038;51.122;6.840;2023-02-18T06:49:47;101649.06;;;10.65;89.11
6020;BME280;3038;51.122;6.840;2023-02-18T06:52:12;101649.75;;;10.67;88.35
6020;BME280;3038;51.122;6.840;2023-02-18T06:54:38;101645.00;;;10.71;88.02
6020;BME280;3038;51.122;6.840;2023-02-18T06:57:03;101660.69;;;10.74;87.36
6020;BME280;3038;51.122;6.840;2023-02-18T06:59:28;101652.00;;;10.81;86.74
6020;BME280;3038;51.122;6.840;2023-02-18T07:01:54;101648.38;;;10.82;86.84
6020;BME280;3038;51.122;6.840;2023-02-18T07:04:19;101653.69;;;10.82;86.33
6020;BME280;3038;51.122;6.840;2023-02-18T07:06:44;101655.38;;;10.84;86.22
6020;BME280;3038;51.122;6.840;2023-02-18T07:09:10;101656.06;;;10.86;85.51
6020;BME280;3038;51.122;6.840;2023-02-18T07:11:35;101658.47;;;10.89;86.01
6020;BME280;3038;51.122;6.840;2023-02-18T07:14:00;101657.31;;;10.91;85.54
6020;BME280;3038;51.122;6.840;2023-02-18T07:16:26;101668.78;;;10.92;85.75
6020;BME280;3038;51.122;6.840;2023-02-18T07:18:51;101673.84;;;10.95;84.70
6020;BME280;3038;51.122;6.840;2023-02-18T07:21:16;101664.88;;;10.96;84.71
6020;BME280;3038;51.122;6.840;2023-02-18T07:23:42;101669.94;;;10.99;84.90
6020;BME280;3038;51.122;6.840;2023-02-18T07:26:10;101663.34;;;11.03;84.51
6020;BME280;3038;51.122;6.840;2023-02-18T07:28:36;101668.38;;;11.06;83.66
6020;BME280;3038;51.122;6.840;2023-02-18T07:31:02;101662.53;;;11.12;83.18
6020;BME280;3038;51.122;6.840;2023-02-18T07:33:27;101669.38;;;11.15;83.10
6020;BME280;3038;51.122;6.840;2023-02-18T07:35:58;101655.38;;;11.13;82.62
6020;BME280;3038;51.122;6.840;2023-02-18T07:38:24;101645.88;;;11.10;82.75
6020;BME280;3038;51.122;6.840;2023-02-18T07:40:51;101645.19;;;11.08;82.19
6020;BME280;3038;51.122;6.840;2023-02-18T07:43:17;101658.16;;;11.11;81.33
6020;BME280;3038;51.122;6.840;2023-02-18T07:45:42;101668.78;;;11.11;81.46
6020;BME280;3038;51.122;6.840;2023-02-18T07:48:08;101663.88;;;10.87;82.92
6020;BME280;3038;51.122;6.840;2023-02-18T07:50:33;101683.28;;;10.68;84.24
6020;BME280;3038;51.122;6.840;2023-02-18T07:53:03;101680.44;;;10.41;86.05
6020;BME280;3038;51.122;6.840;2023-02-18T07:55:29;101685.41;;;10.24;86.75
6020;BME280;3038;51.122;6.840;2023-02-18T07:58:17;101680.47;;;10.20;87.16
6020;BME280;3038;51.122;6.840;2023-02-18T08:00:43;101698.94;;;10.21;86.94
6020;BME280;3038;51.122;6.840;2023-02-18T08:03:09;101707.59;;;10.23;87.18
6020;BME280;3038;51.122;6.840;2023-02-18T08:05:34;101724.81;;;10.29;86.38
6020;BME280;3038;51.122;6.840;2023-02-18T08:07:59;101706.41;;;10.37;86.31
6020;BME280;3038;51.122;6.840;2023-02-18T08:10:25;101712.00;;;10.44;85.08
6020;BME280;3038;51.122;6.840;2023-02-18T08:12:50;101711.56;;;10.39;85.28
6020;BME280;3038;51.122;6.840;2023-02-18T08:15:16;101717.31;;;10.13;87.02
6020;BME280;3038;51.122;6.840;2023-02-18T08:17:41;101720.69;;;9.94;87.94
6020;BME280;3038;51.122;6.840;2023-02-18T08:20:07;101732.09;;;9.85;89.28
6020;BME280;3038;51.122;6.840;2023-02-18T08:22:33;101724.53;;;9.81;89.36
6020;BME280;3038;51.122;6.840;2023-02-18T08:24:58;101723.25;;;9.75;89.30
6020;BME280;3038;51.122;6.840;2023-02-18T08:27:24;101728.69;;;9.73;88.83
6020;BME280;3038;51.122;6.840;2023-02-18T08:29:49;101735.06;;;9.71;89.08
6020;BME280;3038;51.122;6.840;2023-02-18T08:32:14;101744.84;;;9.70;88.46
6020;BME280;3038;51.122;6.840;2023-02-18T08:34:40;101750.16;;;9.70;87.98
6020;BME280;3038;51.122;6.840;2023-02-18T08:37:05;101755.44;;;9.70;87.44
6020;BME280;3038;51.122;6.840;2023-02-18T08:39:34;101741.22;;;9.71;87.92
6020;BME280;3038;51.122;6.840;2023-02-18T08:42:00;101751.88;;;9.81;87.37
6020;BME280;3038;51.122;6.840;2023-02-18T08:44:26;101740.44;;;9.81;87.08
6020;BME280;3038;51.122;6.840;2023-02-18T08:46:52;101737.09;;;9.78;87.10
6020;BME280;3038;51.122;6.840;2023-02-18T08:49:17;101723.25;;;9.75;87.20
6020;BME280;3038;51.122;6.840;2023-02-18T08:51:46;101724.06;;;9.75;87.31
6020;BME280;3038;51.122;6.840;2023-02-18T08:54:11;101733.91;;;9.85;86.34
6020;BME280;3038;51.122;6.840;2023-02-18T08:56:37;101736.22;;;9.99;85.58
6020;BME280;3038;51.122;6.840;2023-02-18T08:59:03;101735.63;;;10.16;84.76
6020;BME280;3038;51.122;6.840;2023-02-18T09:01:29;101735.56;;;10.27;83.69
6020;BME280;3038;51.122;6.840;2023-02-18T09:03:54;101730.44;;;10.36;83.24
6020;BME280;3038;51.122;6.840;2023-02-18T09:06:20;101725.13;;;10.36;82.71
6020;BME280;3038;51.122;6.840;2023-02-18T09:08:45;101710.16;;;10.35;82.04
6020;BME280;3038;51.122;6.840;2023-02-18T09:11:10;101715.34;;;10.36;82.29
6020;BME280;3038;51.122;6.840;2023-02-18T09:13:36;101694.69;;;10.40;82.50
6020;BME280;3038;51.122;6.840;2023-02-18T09:16:09;101705.56;;;10.37;81.96
6020;BME280;3038;51.122;6.840;2023-02-18T09:18:35;101707.69;;;10.43;81.22
6020;BME280;3038;51.122;6.840;2023-02-18T09:21:00;101701.56;;;10.52;81.85
6020;BME280;3038;51.122;6.840;2023-02-18T09:23:28;101707.06;;;10.60;81.37
6020;BME280;3038;51.122;6.840;2023-02-18T09:25:54;101706.75;;;10.63;79.69
6020;BME280;3038;51.122;6.840;2023-02-18T09:28:20;101708.19;;;10.67;80.22
6020;BME280;3038;51.122;6.840;2023-02-18T09:30:45;101707.19;;;10.68;79.51
6020;BME280;3038;51.122;6.840;2023-02-18T09:33:11;101701.19;;;10.66;79.62
6020;BME280;3038;51.122;6.840;2023-02-18T09:35:44;101698.09;;;10.61;79.90
6020;BME280;3038;51.122;6.840;2023-02-18T09:38:13;101690.00;;;10.63;79.16
6020;BME280;3038;51.122;6.840;2023-02-18T09:40:43;101692.66;;;10.63;78.74
6020;BME280;3038;51.122;6.840;2023-02-18T09:43:33;101688.75;;;10.67;78.95
6020;BME280;3038;51.122;6.840;2023-02-18T09:46:00;101693.91;;;10.68;78.40
6020;BME280;3038;51.122;6.840;2023-02-18T09:48:29;101685.41;;;10.74;79.16
6020;BME280;3038;51.122;6.840;2023-02-18T09:50:55;101686.13;;;10.76;78.72
6020;BME280;3038;51.122;6.840;2023-02-18T09:53:22;101686.69;;;10.80;78.50
6020;BME280;3038;51.122;6.840;2023-02-18T09:55:49;101682.06;;;10.82;78.79
6020;BME280;3038;51.122;6.840;2023-02-18T09:58:20;101678.88;;;10.78;78.07
6020;BME280;3038;51.122;6.840;2023-02-18T10:00:51;101671.31;;;10.84;78.21
6020;BME280;3038;51.122;6.840;2023-02-18T10:03:22;101677.31;;;10.86;79.04
6020;BME280;3038;51.122;6.840;2023-02-18T10:08:33;101663.78;;;10.89;78.43
6020;BME280;3038;51.122;6.840;2023-02-18T10:11:00;101668.78;;;10.92;77.95
6020;BME280;3038;51.122;6.840;2023-02-18T10:13:31;101668.38;;;10.96;77.59
6020;BME280;3038;51.122;6.840;2023-02-18T10:15:57;101660.69;;;11.03;76.83
6020;BME280;3038;51.122;6.840;2023-02-18T10:21:06;101663.34;;;11.03;77.62
6020;BME280;3038;51.122;6.840;2023-02-18T10:23:35;101660.69;;;11.03;77.47
6020;BME280;3038;51.122;6.840;2023-02-18T10:26:05;101662.38;;;11.04;77.07
6020;BME280;3038;51.122;6.840;2023-02-18T10:28:32;101655.09;;;11.06;77.16
6020;BME280;3038;51.122;6.840;2023-02-18T10:31:04;101662.22;;;11.05;77.35
6020;BME280;3038;51.122;6.840;2023-02-18T10:36:45;101675.09;;;11.10;77.11
6020;BME280;3038;51.122;6.840;2023-02-18T10:47:38;101688.97;;;10.14;84.26
6020;BME280;3038;51.122;6.840;2023-02-18T10:50:26;101690.16;;;10.00;86.02
6020;BME280;3038;51.122;6.840;2023-02-18T10:52:54;101687.50;;;10.00;86.62
6020;BME280;3038;51.122;6.840;2023-02-18T10:55:37;101699.63;;;9.93;87.24
6020;BME280;3038;51.122;6.840;2023-02-18T10:58:03;101706.69;;;9.83;87.04
6020;BME280;3038;51.122;6.840;2023-02-18T11:00:34;101706.69;;;9.83;87.71
6020;BME280;3038;51.122;6.840;2023-02-18T11:03:14;101706.69;;;9.83;87.53
6020;BME280;3038;51.122;6.840;2023-02-18T11:05:41;101707.66;;;9.82;87.76
6020;BME280;3038;51.122;6.840;2023-02-18T11:08:12;101696.63;;;9.86;87.49
6020;BME280;3038;51.122;6.840;2023-02-18T11:10:41;101690.78;;;9.83;87.40
6020;BME280;3038;51.122;6.840;2023-02-18T11:13:09;101699.44;;;9.85;88.23
6020;BME280;3038;51.122;6.840;2023-02-18T11:15:37;101701.56;;;9.91;88.15
6020;BME280;3038;51.122;6.840;2023-02-18T11:18:38;101720.00;;;9.92;87.85
6020;BME280;3038;51.122;6.840;2023-02-18T11:23:51;101712.56;;;9.86;88.77
6020;BME280;3038;51.122;6.840;2023-02-18T11:26:31;101708.94;;;9.87;89.09
6020;BME280;3038;51.122;6.840;2023-02-18T11:29:19;101707.84;;;9.90;89.47
6020;BME280;3038;51.122;6.840;2023-02-18T11:31:47;101707.59;;;9.93;89.52
6020;BME280;3038;51.122;6.840;2023-02-18T11:34:26;101698.66;;;9.94;90.43
6020;BME280;3038;51.122;6.840;2023-02-18T11:36:53;101702.72;;;9.98;90.11
6020;BME280;3038;51.122;6.840;2023-02-18T11:39:22;101716.19;;;10.06;90.19
6020;BME280;3038;51.122;6.840;2023-02-18T11:42:01;101706.13;;;10.10;89.76
6020;BME280;3038;51.122;6.840;2023-02-18T11:47:03;101705.69;;;10.04;90.70
6020;BME280;3038;51.122;6.840;2023-02-18T11:49:30;101705.13;;;10.01;90.01
6020;BME280;3038;51.122;6.840;2023-02-18T11:52:16;101700.06;;;9.98;90.98
6020;BME280;3038;51.122;6.840;2023-02-18T11:54:58;101697.84;;;10.03;90.56
6020;BME280;3038;51.122;6.840;2023-02-18T11:57:26;101702.63;;;10.09;90.22
6020;BME280;3038;51.122;6.840;2023-02-18T11:59:52;101711.56;;;10.08;90.21
6020;BME280;3038;51.122;6.840;2023-02-18T12:02:33;101707.94;;;10.09;90.31
6020;BME280;3038;51.122;6.840;2023-02-18T12:05:28;101700.41;;;10.14;90.55
6020;BME280;3038;51.122;6.840;2023-02-18T12:08:00;101704.03;;;10.13;90.47
6020;BME280;3038;51.122;6.840;2023-02-18T12:10:42;101703.84;;;10.05;90.89
6020;BME280;3038;51.122;6.840;2023-02-18T12:18:39;101697.81;;;9.93;91.45
6020;BME280;3038;51.122;6.840;2023-02-18T12:21:20;101698.94;;;10.00;92.83
6020;BME280;3038;51.122;6.840;2023-02-18T12:34:39;101693.97;;;10.07;92.11
6020;BME280;3038;51.122;6.840;2023-02-18T12:40:02;101693.56;;;10.12;92.18
6020;BME280;3038;51.122;6.840;2023-02-18T12:48:43;101687.16;;;10.14;91.89
6020;BME280;3038;51.122;6.840;2023-02-18T12:51:40;101682.78;;;10.03;91.88
6020;BME280;3038;51.122;6.840;2023-02-18T12:54:20;101694.50;;;10.01;92.52
6020;BME280;3038;51.122;6.840;2023-02-18T12:59:59;101696.44;;;9.99;92.43
6020;BME280;3038;51.122;6.840;2023-02-18T13:05:30;101695.00;;;9.95;92.52
6020;BME280;3038;51.122;6.840;2023-02-18T13:10:59;101695.16;;;9.93;92.87
6020;BME280;3038;51.122;6.840;2023-02-18T13:13:39;101687.50;;;10.00;92.67
6020;BME280;3038;51.122;6.840;2023-02-18T13:16:12;101697.06;;;10.12;92.38
6020;BME280;3038;51.122;6.840;2023-02-18T13:21:08;101696.03;;;10.24;92.12
6020;BME280;3038;51.122;6.840;2023-02-18T13:23:44;101691.94;;;10.20;91.98
6020;BME280;3038;51.122;6.840;2023-02-18T13:26:13;101689.81;;;10.14;92.43
6020;BME280;3038;51.122;6.840;2023-02-18T13:28:54;101698.75;;;10.13;92.37
6020;BME280;3038;51.122;6.840;2023-02-18T13:39:49;101692.28;;;10.06;93.14
6020;BME280;3038;51.122;6.840;2023-02-18T13:47:36;101696.03;;;10.03;93.46
6020;BME280;3038;51.122;6.840;2023-02-18T13:52:46;101685.56;;;10.02;93.34
6020;BME280;3038;51.122;6.840;2023-02-18T13:55:20;101700.66;;;10.01;93.38
6020;BME280;3038;51.122;6.840;2023-02-18T13:57:48;101692.81;;;10.00;93.40
6020;BME280;3038;51.122;6.840;2023-02-18T14:00:34;101686.41;;;10.02;93.05
6020;BME280;3038;51.122;6.840;2023-02-18T14:03:19;101687.25;;;10.03;93.49
6020;BME280;3038;51.122;6.840;2023-02-18T14:05:45;101703.16;;;10.03;92.84
6020;BME280;3038;51.122;6.840;2023-02-18T14:08:28;101699.53;;;10.04;93.24
6020;BME280;3038;51.122;6.840;2023-02-18T14:13:43;101698.69;;;10.03;93.46
6020;BME280;3038;51.122;6.840;2023-02-18T14:16:11;101690.88;;;10.02;93.04
6020;BME280;3038;51.122;6.840;2023-02-18T14:28:51;101666.91;;;10.13;93.69
6020;BME280;3038;51.122;6.840;2023-02-18T14:31:26;101673.88;;;10.14;93.64
6020;BME280;3038;51.122;6.840;2023-02-18T14:36:26;101674.06;;;10.22;93.44
6020;BME280;3038;51.122;6.840;2023-02-18T14:39:29;101682.03;;;10.22;93.34
6020;BME280;3038;51.122;6.840;2023-02-18T14:45:02;101672.66;;;10.18;93.71
6020;BME280;3038;51.122;6.840;2023-02-18T14:47:44;101683.41;;;10.17;92.99
6020;BME280;3038;51.122;6.840;2023-02-18T14:50:17;101671.22;;;10.14;93.52
6020;BME280;3038;51.122;6.840;2023-02-18T14:53:04;101690.63;;;10.15;93.62
6020;BME280;3038;51.122;6.840;2023-02-18T14:55:36;101678.19;;;10.15;93.52
6020;BME280;3038;51.122;6.840;2023-02-18T15:00:34;101664.69;;;10.18;93.33
6020;BME280;3038;51.122;6.840;2023-02-18T15:03:03;101668.06;;;10.20;93.20
6020;BME280;3038;51.122;6.840;2023-02-18T15:05:30;101662.47;;;10.23;93.52
6020;BME280;3038;51.122;6.840;2023-02-18T15:08:01;101659.81;;;10.23;93.33
6020;BME280;3038;51.122;6.840;2023-02-18T15:13:23;101671.41;;;10.22;93.12
6020;BME280;3038;51.122;6.840;2023-02-18T15:15:54;101664.41;;;10.21;93.51
6020;BME280;3038;51.122;6.840;2023-02-18T15:18:32;101657.44;;;10.20;93.40
6020;BME280;3038;51.122;6.840;2023-02-18T15:21:00;101673.63;;;10.17;94.14
6020;BME280;3038;51.122;6.840;2023-02-18T15:23:26;101664.09;;;10.15;94.30
6020;BME280;3038;51.122;6.840;2023-02-18T15:25:53;101657.97;;;10.14;93.79
6020;BME280;3038;51.122;6.840;2023-02-18T15:28:24;101657.13;;;10.14;93.93
6020;BME280;3038;51.122;6.840;2023-02-18T15:30:49;101663.41;;;10.13;94.46
6020;BME280;3038;51.122;6.840;2023-02-18T15:33:18;101675.00;;;10.12;94.69
6020;BME280;3038;51.122;6.840;2023-02-18T15:35:43;101666.06;;;10.13;94.38
6020;BME280;3038;51.122;6.840;2023-02-18T15:38:15;101675.84;;;10.12;94.49